createdAt,value
2023-05-20T00:04:42.856Z,4.00
2023-05-20T00:09:52.267Z,3.70
2023-05-20T00:15:00.918Z,4.23
2023-05-20T00:20:10.522Z,5.00
2023-05-20T00:25:19.715Z,4.30
2023-05-20T00:30:29.502Z,4.73
2023-05-20T00:35:39.124Z,4.80
2023-05-20T00:40:52.817Z,5.10
2023-05-20T00:46:02.181Z,4.83
2023-05-20T00:51:11.042Z,6.30
2023-05-20T00:56:19.532Z,4.90
2023-05-20T01:01:28.544Z,4.60
2023-05-20T01:06:38.654Z,4.53
2023-05-20T01:11:49.787Z,7.33
2023-05-20T01:17:00.011Z,5.33
2023-05-20T01:22:12.225Z,4.13
2023-05-20T01:27:25.247Z,4.20
2023-05-20T01:32:38.923Z,3.80
2023-05-20T01:37:48.672Z,3.70
2023-05-20T01:42:57.804Z,4.10
2023-05-20T01:48:06.228Z,4.83
2023-05-20T01:53:15.895Z,4.80
2023-05-20T01:58:25.740Z,3.80
2023-05-20T02:03:34.434Z,4.27
2023-05-20T02:08:45.533Z,3.97
2023-05-20T02:13:53.495Z,4.03
2023-05-20T02:19:03.307Z,3.73
2023-05-20T02:24:11.865Z,4.10
2023-05-20T02:29:22.893Z,4.30
2023-05-20T02:34:32.044Z,4.20
2023-05-20T02:39:39.747Z,4.00
2023-05-20T02:44:48.354Z,4.13
2023-05-20T02:49:58.109Z,4.63
2023-05-20T02:55:10.454Z,4.30
2023-05-20T03:00:19.499Z,4.23
2023-05-20T03:05:28.080Z,4.10
2023-05-20T03:10:38.019Z,4.40
2023-05-20T03:15:47.077Z,4.30
2023-05-20T03:20:55.260Z,4.53
2023-05-20T03:26:05.184Z,4.23
2023-05-20T03:31:14.935Z,4.63
2023-05-20T03:36:23.209Z,4.33
2023-05-20T03:41:37.048Z,4.17
2023-05-20T03:46:50.166Z,4.30
2023-05-20T03:51:58.446Z,5.50
2023-05-20T03:57:07.279Z,4.53
2023-05-20T04:02:16.700Z,3.90
2023-05-20T04:07:25.320Z,4.20
2023-05-20T04:12:34.776Z,4.73
2023-05-20T04:17:44.203Z,4.50
2023-05-20T04:22:56.393Z,5.17
2023-05-20T04:28:05.937Z,5.17
2023-05-20T04:33:19.157Z,5.00
2023-05-20T04:38:30.790Z,5.13
2023-05-20T04:43:40.866Z,6.07
2023-05-20T04:48:49.729Z,6.70
2023-05-20T04:53:59.424Z,7.23
2023-05-20T04:59:10.231Z,8.33
2023-05-20T05:04:19.560Z,8.60
2023-05-20T05:09:29.022Z,9.53
2023-05-20T05:14:39.000Z,8.87
2023-05-20T05:19:51.481Z,7.73
2023-05-20T05:25:01.185Z,9.53
2023-05-20T05:30:10.167Z,7.63
2023-05-20T05:35:18.459Z,7.23
2023-05-20T05:40:27.408Z,7.17
2023-05-20T05:45:36.194Z,7.87
2023-05-20T05:50:46.986Z,8.97
2023-05-20T05:55:56.424Z,8.50
2023-05-20T06:01:05.320Z,7.83
2023-05-20T06:06:17.046Z,7.60
2023-05-20T06:11:27.651Z,6.00
2023-05-20T06:16:38.932Z,4.93
2023-05-20T06:21:49.655Z,4.87
2023-05-20T06:27:00.641Z,4.87
2023-05-20T06:32:11.113Z,5.07
2023-05-20T06:37:23.703Z,4.90
2023-05-20T06:42:33.075Z,4.80
2023-05-20T06:47:44.748Z,4.73
2023-05-20T06:52:54.303Z,4.43
2023-05-20T06:58:06.046Z,4.47
2023-05-20T07:03:15.256Z,4.33
2023-05-20T07:08:25.887Z,4.03
2023-05-20T07:13:35.244Z,4.23
2023-05-20T07:18:44.048Z,3.73
2023-05-20T07:23:53.635Z,4.10
2023-05-20T07:29:05.427Z,4.13
2023-05-20T07:34:14.129Z,3.77
2023-05-20T07:39:24.818Z,3.93
2023-05-20T07:44:35.309Z,4.07
2023-05-20T07:49:51.195Z,4.23
2023-05-20T07:55:00.049Z,4.23
2023-05-20T08:00:10.335Z,3.73
2023-05-20T08:05:20.169Z,3.97
2023-05-20T08:10:29.549Z,4.33
2023-05-20T08:15:39.863Z,3.73
2023-05-20T08:20:49.901Z,3.97
2023-05-20T08:26:00.481Z,3.80
2023-05-20T08:31:10.956Z,3.40
2023-05-20T08:36:25.261Z,4.30
2023-05-20T08:41:40.150Z,3.57
2023-05-20T08:46:50.571Z,3.63
2023-05-20T08:52:05.478Z,3.97
2023-05-20T08:57:18.966Z,3.67
2023-05-20T09:02:28.270Z,3.77
2023-05-20T09:07:38.848Z,3.47
2023-05-20T09:12:49.600Z,3.80
2023-05-20T09:17:59.897Z,3.83
2023-05-20T09:23:13.344Z,3.30
2023-05-20T09:28:34.132Z,3.70
2023-05-20T09:33:53.988Z,3.87
2023-05-20T09:39:06.706Z,3.37
2023-05-20T09:44:17.382Z,3.70
2023-05-20T09:49:32.815Z,3.57
2023-05-20T09:54:43.717Z,3.27
2023-05-20T09:59:55.674Z,2.77
2023-05-20T10:05:10.310Z,3.63
2023-05-20T10:10:24.633Z,3.00
2023-05-20T10:15:35.496Z,3.37
2023-05-20T10:20:47.960Z,3.17
2023-05-20T10:25:58.758Z,2.77
2023-05-20T10:31:09.236Z,3.00
2023-05-20T10:36:19.349Z,3.20
2023-05-20T10:41:29.462Z,3.60
2023-05-20T10:46:48.762Z,4.10
2023-05-20T10:51:49.824Z,3.70
2023-05-20T10:56:58.906Z,3.90
2023-05-20T11:02:07.772Z,4.23
2023-05-20T11:07:22.092Z,4.23
2023-05-20T11:12:31.189Z,4.40
2023-05-20T11:17:39.766Z,4.50
2023-05-20T11:22:49.196Z,4.77
2023-05-20T11:27:57.937Z,4.63
2023-05-20T11:33:09.094Z,4.50
2023-05-20T11:38:19.061Z,4.50
2023-05-20T11:43:28.780Z,5.10
2023-05-20T11:48:37.197Z,4.70
2023-05-20T11:53:47.969Z,4.40
2023-05-20T11:59:02.041Z,4.43
2023-05-20T12:04:15.139Z,4.57
2023-05-20T12:09:33.469Z,4.80
2023-05-20T12:14:43.774Z,4.93
2023-05-20T12:19:51.833Z,5.07
2023-05-20T12:25:01.269Z,5.07
2023-05-20T12:30:13.735Z,4.70
2023-05-20T12:35:24.591Z,5.37
2023-05-20T12:40:34.565Z,5.77
2023-05-20T12:45:43.715Z,5.43
2023-05-20T12:50:52.548Z,5.20
2023-05-20T12:56:02.092Z,5.17
2023-05-20T13:01:10.833Z,5.47
2023-05-20T13:06:19.942Z,5.50
2023-05-20T13:11:29.025Z,6.00
2023-05-20T13:16:39.155Z,5.37
2023-05-20T13:21:49.546Z,6.40
2023-05-20T13:26:59.935Z,6.17
2023-05-20T13:32:09.251Z,6.37
2023-05-20T13:37:19.088Z,6.03
2023-05-20T13:42:27.277Z,5.47
2023-05-20T13:47:35.991Z,5.93
2023-05-20T13:52:49.739Z,6.07
2023-05-20T14:03:20.339Z,8.03
2023-05-20T14:08:33.868Z,5.90
2023-05-20T14:13:42.070Z,6.10
2023-05-20T14:18:50.670Z,5.87
2023-05-20T14:23:59.868Z,5.30
2023-05-20T14:29:08.493Z,5.87
2023-05-20T14:34:16.887Z,5.57
2023-05-20T14:39:37.305Z,5.63
2023-05-20T14:44:55.265Z,6.00
2023-05-20T14:50:04.693Z,5.47
2023-05-20T14:55:14.198Z,6.00
2023-05-20T15:00:23.452Z,5.97
2023-05-20T15:05:34.136Z,6.10
2023-05-20T15:10:43.192Z,6.37
2023-05-20T15:15:52.352Z,5.97
2023-05-20T15:21:01.422Z,5.83
2023-05-20T15:26:15.325Z,5.93
2023-05-20T15:31:24.985Z,5.40
2023-05-20T15:36:35.893Z,5.50
2023-05-20T15:41:44.404Z,5.67
2023-05-20T15:52:18.039Z,5.20
2023-05-20T15:57:35.241Z,5.93
2023-05-20T16:02:49.904Z,5.63
2023-05-20T16:08:00.908Z,6.23
2023-05-20T16:13:10.812Z,6.20
2023-05-20T16:18:23.455Z,5.90
2023-05-20T16:23:31.601Z,6.27
2023-05-20T16:28:41.083Z,6.00
2023-05-20T16:33:54.464Z,5.70
2023-05-20T16:39:07.939Z,6.23
2023-05-20T16:44:17.902Z,6.87
2023-05-20T16:49:28.858Z,7.10
2023-05-20T16:54:42.593Z,6.47
2023-05-20T16:59:56.370Z,7.43
2023-05-20T17:05:05.947Z,7.60
2023-05-20T17:10:19.417Z,7.33
2023-05-20T17:15:28.138Z,8.50
2023-05-20T17:20:39.178Z,8.70
2023-05-20T17:25:47.996Z,8.03
2023-05-20T17:30:57.202Z,8.27
2023-05-20T17:36:06.977Z,8.70
2023-05-20T17:41:19.921Z,10.90
2023-05-20T17:46:31.051Z,23.70
2023-05-20T17:51:40.992Z,9.23
2023-05-20T17:56:51.778Z,12.63
2023-05-20T18:02:08.606Z,17.87
2023-05-20T18:07:18.745Z,12.90
2023-05-20T18:12:28.276Z,9.57
2023-05-20T18:17:40.549Z,9.83
2023-05-20T18:22:51.130Z,9.17
2023-05-20T18:28:01.853Z,8.67
2023-05-20T18:33:12.006Z,9.13
2023-05-20T18:38:21.271Z,9.80
2023-05-20T18:43:35.971Z,9.67
2023-05-20T18:48:46.578Z,8.13
2023-05-20T18:53:58.434Z,8.60
2023-05-20T18:59:08.027Z,9.57
2023-05-20T19:04:21.295Z,9.07
2023-05-20T19:09:29.620Z,9.57
2023-05-20T19:14:38.833Z,10.60
2023-05-20T19:19:47.874Z,11.43
2023-05-20T19:24:57.996Z,9.90
2023-05-20T19:30:11.033Z,11.03
2023-05-20T19:35:21.423Z,10.67
2023-05-20T19:40:31.444Z,11.97
2023-05-20T19:45:43.129Z,10.73
2023-05-20T19:50:55.112Z,11.20
2023-05-20T19:56:04.260Z,12.47
2023-05-20T20:01:17.022Z,11.10
2023-05-20T20:06:27.260Z,15.03
2023-05-20T20:11:36.721Z,11.53
2023-05-20T20:16:50.333Z,10.50
2023-05-20T20:22:00.884Z,11.23
2023-05-20T20:27:12.759Z,17.17
2023-05-20T20:32:22.307Z,14.00
2023-05-20T20:37:31.738Z,11.03
2023-05-20T20:42:45.189Z,10.97
2023-05-20T20:48:01.898Z,10.83
2023-05-20T20:53:09.936Z,11.00
2023-05-20T20:58:18.495Z,10.30
2023-05-20T21:03:27.312Z,11.37
2023-05-20T21:08:37.275Z,9.73
2023-05-20T21:13:48.441Z,7.50
2023-05-20T21:19:01.631Z,10.10
2023-05-20T21:24:12.688Z,10.17
2023-05-20T21:29:21.661Z,10.33
2023-05-20T21:34:31.205Z,10.93
2023-05-20T21:39:42.400Z,7.60
2023-05-20T21:44:51.312Z,7.77
2023-05-20T21:50:05.399Z,7.80
2023-05-20T21:55:19.033Z,7.83
2023-05-20T22:00:27.775Z,9.23
2023-05-20T22:05:36.241Z,11.50
2023-05-20T22:10:46.005Z,11.70
2023-05-20T22:15:57.184Z,14.13
2023-05-20T22:21:06.913Z,11.80
2023-05-20T22:26:17.446Z,11.80
2023-05-20T22:31:28.708Z,11.43
2023-05-20T22:36:37.988Z,10.37
2023-05-20T22:41:47.827Z,10.83
2023-05-20T22:46:55.563Z,9.67
2023-05-20T22:52:04.356Z,10.93
2023-05-20T22:57:13.461Z,12.27
2023-05-20T23:02:23.204Z,12.20
2023-05-20T23:07:33.821Z,12.50
2023-05-20T23:12:44.564Z,11.90
2023-05-20T23:17:53.684Z,11.63
2023-05-20T23:23:11.253Z,11.73
2023-05-20T23:28:16.460Z,11.27
2023-05-20T23:33:30.505Z,12.93
2023-05-20T23:38:39.564Z,13.93
2023-05-20T23:43:48.988Z,13.80
2023-05-20T23:48:56.643Z,12.90
2023-05-20T23:54:04.389Z,11.70
2023-05-20T23:59:12.458Z,9.87
